hwlogo.jpg (8581 bytes)
Home Your Weather Products Services Weather On Your Site Contact
HW Version Logo
Weather Info
Your Weather (Options)
Canadian Weather
International Weather
Enter your " Place, State", US Zip Code or ICAO:  
Forecast Information Radar Information
Geraldton, Ontario, Canada  Lat: 49.77N, Lon: 86.93W
ICAO Used: CYGQ
Current Conditions
Updated: 2:41 AM EST MON FEB 19 2018
Sun & Moon Information
Light Snow
Light Snow
Temp: -16°C
Humidity: 77%
Wind Speed: NNE 10 MPH
Barometer: 1015 mb
Dewpoint: -19°C
Heat Index: -16°C
Wind Chill: -25°C
Civil Twilight: 7:20 AM EST Moon Phase:
Waxing Crescent Moon
Sunrise: 7:53 AM EST
Sunset: 6:09 PM EST
Civil Twilight: 6:42 PM EST
Forecast for Geraldton, ON:
(Forecast based on TAF for )
0700 PM EST SUN FEB 18 2018
  
MORNING AFTERNOON EVENING OVERNIGHT
Partly
Cloudy
Partly
Cloudy
Partly
Cloudy
Partly
Cloudy
ZoneCast:
Dated: 0700 PM EST SUN FEB 18 2018
Morning...Turning partly cloudy with winds from the northeast at 12 mph.

Afternoon...Partly cloudy with winds from the northeast at 12 mph.

Evening...Partly cloudy with winds from the northeast at 12 mph.

Overnight...Partly cloudy with winds from the northeast at 12 mph.

Original Encoded TAF:
Dated: 0700 PM EST SUN FEB 18 2018
2018/02/19 08:39
TAF TAF CYGQ 190738Z 1908/1920 03010KT P6SM SCT015 BKN040 
      TEMPO 1908/1916 4SM -SN BKN015 OVC030 
     FM191600 04010KT P6SM SCT030 
      TEMPO 1916/1920 BKN020 
      RMK NXT FCST BY 191400Z